Ahwahnee, California
Current Conditions -  °F | °C
As of 10:53 AM on Thursday 23 Oct 2014 (Local Time) from KMAE Reporting Station
Clear Clear  
Wind Chill: 68°   Ceiling: Unl
Heat Index: 68°   Visibility: 10mi
Dew Point: 44°   Wind: 0mph
Humidity: 42%   Direction: NA
Pressure: 30.07"   Gusts: NA
Location:  37.37°N, 119.73°W
Report Text: KMAE 231753Z AUTO 00000KT 10SM CLR 20/07 A3007 RMK AO2 SLP182 T02000067 10206 20083 50007 $
Loading
Personal Weather Stations






























Interactive Weather Map
Tropical Storm Tracking
New forecast layout! Learn more

10-Day Weather Forecast

Advertisements
Track Severe Weather on mobile